createdAt,value
2018-03-14T00:00:20.781Z,3.8
2018-03-14T00:01:23.221Z,3.8
2018-03-14T00:02:25.935Z,3.8
2018-03-14T00:03:28.374Z,3.8
2018-03-14T00:04:30.809Z,3.8
2018-03-14T00:05:33.233Z,3.8
2018-03-14T00:06:35.667Z,3.7
2018-03-14T00:07:38.099Z,3.7
2018-03-14T00:08:40.516Z,3.7
2018-03-14T00:09:43.256Z,3.8
2018-03-14T00:10:45.675Z,3.8
2018-03-14T00:11:48.444Z,3.8
2018-03-14T00:12:50.881Z,3.8
2018-03-14T00:13:53.307Z,3.8
2018-03-14T00:14:56.029Z,3.8
2018-03-14T00:15:58.456Z,3.7
2018-03-14T00:17:01.199Z,3.7
2018-03-14T00:18:03.637Z,3.7
2018-03-14T00:19:06.057Z,3.7
2018-03-14T00:20:08.487Z,3.7
2018-03-14T00:21:10.919Z,3.7
2018-03-14T00:22:13.352Z,3.7
2018-03-14T00:23:15.789Z,3.7
2018-03-14T00:24:18.530Z,3.7
2018-03-14T00:25:21.268Z,3.7
2018-03-14T00:26:23.692Z,3.7
2018-03-14T00:27:26.107Z,3.7
2018-03-14T00:28:28.537Z,3.7
2018-03-14T00:29:31.261Z,3.7
2018-03-14T00:30:33.694Z,3.7
2018-03-14T00:31:36.445Z,3.7
2018-03-14T00:32:38.867Z,3.7
2018-03-14T00:33:41.299Z,3.7
2018-03-14T00:34:43.738Z,3.7
2018-03-14T00:35:46.163Z,3.7
2018-03-14T00:36:48.590Z,3.7
2018-03-14T00:37:51.325Z,3.7
2018-03-14T00:38:54.087Z,3.7
2018-03-14T00:39:56.502Z,3.6
2018-03-14T00:40:59.232Z,3.6
2018-03-14T00:42:01.658Z,3.7
2018-03-14T00:43:04.386Z,3.7
2018-03-14T00:44:06.812Z,3.7
2018-03-14T00:45:09.564Z,3.7
2018-03-14T00:46:12.298Z,3.6
2018-03-14T00:47:14.734Z,3.7
2018-03-14T00:48:17.163Z,3.7
2018-03-14T00:49:19.592Z,3.7
2018-03-14T00:50:22.329Z,3.7
2018-03-14T00:51:24.747Z,3.7
2018-03-14T00:52:27.169Z,3.7
2018-03-14T00:53:29.613Z,3.7
2018-03-14T00:54:32.040Z,3.7
2018-03-14T00:55:34.466Z,3.6
2018-03-14T00:56:36.890Z,3.7
2018-03-14T00:57:39.317Z,3.7
2018-03-14T00:58:41.746Z,3.6
2018-03-14T00:59:44.498Z,3.7
2018-03-14T01:00:46.932Z,3.7
2018-03-14T01:01:49.681Z,3.7
2018-03-14T01:02:52.112Z,3.7
2018-03-14T01:03:54.538Z,3.7
2018-03-14T01:04:57.262Z,3.7
2018-03-14T01:05:59.692Z,3.7
2018-03-14T01:07:02.404Z,3.8
2018-03-14T01:08:04.838Z,3.7
2018-03-14T01:09:07.268Z,3.7
2018-03-14T01:10:10.838Z,3.7
2018-03-14T01:11:13.587Z,3.7
2018-03-14T01:12:16.010Z,3.7
2018-03-14T01:13:18.439Z,3.7
2018-03-14T01:14:20.867Z,3.7
2018-03-14T01:15:23.291Z,3.7
2018-03-14T01:16:25.723Z,3.7
2018-03-14T01:17:28.164Z,3.7
2018-03-14T01:18:30.588Z,3.7
2018-03-14T01:19:33.338Z,3.7
2018-03-14T01:20:36.177Z,3.7
2018-03-14T01:21:38.607Z,3.7
2018-03-14T01:22:41.034Z,3.7
2018-03-14T01:23:43.772Z,3.7
2018-03-14T01:24:46.199Z,3.7
2018-03-14T01:25:48.637Z,3.7
2018-03-14T01:26:51.064Z,3.7
2018-03-14T01:27:53.484Z,3.7
2018-03-14T01:28:55.915Z,3.7
2018-03-14T01:29:58.340Z,3.7
2018-03-14T01:31:00.767Z,3.7
2018-03-14T01:32:03.518Z,3.6
2018-03-14T01:33:05.944Z,3.6
2018-03-14T01:34:08.376Z,3.6
2018-03-14T01:35:10.806Z,3.7
2018-03-14T01:36:13.235Z,3.6
2018-03-14T01:37:15.954Z,3.7
2018-03-14T01:38:18.391Z,3.6
2018-03-14T01:39:21.460Z,3.6
2018-03-14T01:40:23.896Z,3.6
2018-03-14T01:41:26.616Z,3.6
2018-03-14T01:42:29.780Z,3.7
2018-03-14T01:43:32.228Z,3.6
2018-03-14T01:44:34.682Z,3.6
2018-03-14T01:45:37.068Z,3.6
2018-03-14T01:46:39.500Z,3.5
2018-03-14T01:47:42.254Z,3.6
2018-03-14T01:48:44.684Z,3.6
2018-03-14T01:49:47.121Z,3.6
2018-03-14T01:50:50.191Z,3.6
2018-03-14T01:51:52.617Z,3.6
2018-03-14T01:52:55.057Z,3.6
2018-03-14T01:53:57.483Z,3.5
2018-03-14T01:54:59.908Z,3.6
2018-03-14T01:56:02.641Z,3.6
2018-03-14T01:57:05.070Z,3.6
2018-03-14T01:58:07.809Z,3.6
2018-03-14T01:59:10.832Z,3.6
2018-03-14T02:00:13.263Z,3.6
2018-03-14T02:01:15.694Z,3.6
2018-03-14T02:02:18.116Z,3.6
2018-03-14T02:03:20.548Z,3.6
2018-03-14T02:04:22.971Z,3.6
2018-03-14T02:05:25.422Z,3.6
2018-03-14T02:06:27.836Z,3.6
2018-03-14T02:07:30.251Z,3.6
2018-03-14T02:08:32.680Z,3.6
2018-03-14T02:09:35.104Z,3.6
2018-03-14T02:10:37.532Z,3.5
2018-03-14T02:11:40.307Z,3.6
2018-03-14T02:12:43.062Z,3.6
2018-03-14T02:13:45.784Z,3.5
2018-03-14T02:14:48.555Z,3.5
2018-03-14T02:15:51.283Z,3.6
2018-03-14T02:16:53.722Z,3.6
2018-03-14T02:17:56.152Z,3.6
2018-03-14T02:18:58.581Z,3.5
2018-03-14T02:20:01.010Z,3.5
2018-03-14T02:21:03.438Z,3.5
2018-03-14T02:22:05.861Z,3.5
2018-03-14T02:23:08.287Z,3.5
2018-03-14T02:24:11.028Z,3.5
2018-03-14T02:25:13.755Z,3.5
2018-03-14T02:26:16.177Z,3.5
2018-03-14T02:27:18.613Z,3.5
2018-03-14T02:28:21.041Z,3.5
2018-03-14T02:29:24.704Z,3.5
2018-03-14T02:30:27.147Z,3.5
2018-03-14T02:31:29.852Z,3.5
2018-03-14T02:32:32.288Z,3.6
2018-03-14T02:33:34.713Z,3.6
2018-03-14T02:34:38.341Z,3.5
2018-03-14T02:35:40.765Z,3.5
2018-03-14T02:36:43.190Z,3.5
2018-03-14T02:37:45.610Z,3.5
2018-03-14T02:38:48.039Z,3.5
2018-03-14T02:39:50.469Z,3.5
2018-03-14T02:40:52.877Z,3.5
2018-03-14T02:41:55.318Z,3.5
2018-03-14T02:42:57.742Z,3.5
2018-03-14T02:44:00.173Z,3.5
2018-03-14T02:45:02.890Z,3.5
2018-03-14T02:46:05.604Z,3.5
2018-03-14T02:47:08.030Z,3.5
2018-03-14T02:48:10.463Z,3.5
2018-03-14T02:49:12.881Z,3.5
2018-03-14T02:50:15.310Z,3.5
2018-03-14T02:51:17.737Z,3.5
2018-03-14T02:52:20.167Z,3.5
2018-03-14T02:53:22.592Z,3.5
2018-03-14T02:54:25.011Z,3.5
2018-03-14T02:55:27.448Z,3.5
2018-03-14T02:56:29.877Z,3.5
2018-03-14T02:57:32.298Z,3.5
2018-03-14T02:58:34.734Z,3.5
2018-03-14T02:59:37.160Z,3.5
2018-03-14T03:00:39.875Z,3.5
2018-03-14T03:01:42.305Z,3.5
2018-03-14T03:02:44.728Z,3.5
2018-03-14T03:03:47.153Z,3.5
2018-03-14T03:04:49.596Z,3.5
2018-03-14T03:05:52.310Z,3.6
2018-03-14T03:06:54.766Z,3.5
2018-03-14T03:07:57.166Z,3.4
2018-03-14T03:08:59.587Z,3.5
2018-03-14T03:10:02.011Z,3.5
2018-03-14T03:11:04.443Z,3.5
2018-03-14T03:12:06.869Z,3.4
2018-03-14T03:13:09.608Z,3.4
2018-03-14T03:14:12.034Z,3.5
2018-03-14T03:15:14.458Z,3.5
2018-03-14T03:16:16.897Z,3.5
2018-03-14T03:17:19.326Z,3.5
2018-03-14T03:18:22.048Z,3.5
2018-03-14T03:19:24.469Z,3.5
2018-03-14T03:20:26.896Z,3.5
2018-03-14T03:21:29.333Z,3.5
2018-03-14T03:22:31.764Z,3.5
2018-03-14T03:23:34.189Z,3.5
2018-03-14T03:24:36.625Z,3.5
2018-03-14T03:25:39.049Z,3.5
2018-03-14T03:26:41.478Z,3.5
2018-03-14T03:27:43.910Z,3.5
2018-03-14T03:28:46.349Z,3.5
2018-03-14T03:29:49.043Z,3.5
2018-03-14T03:30:51.479Z,3.5
2018-03-14T03:31:53.902Z,3.6
2018-03-14T03:32:56.324Z,3.5
2018-03-14T03:33:59.047Z,3.5
2018-03-14T03:35:01.473Z,3.5
2018-03-14T03:36:03.894Z,3.5
2018-03-14T03:37:06.622Z,3.5
2018-03-14T03:38:09.048Z,3.4
2018-03-14T03:39:11.573Z,3.4
2018-03-14T03:40:13.911Z,3.5
2018-03-14T03:41:16.342Z,3.5
2018-03-14T03:42:18.767Z,3.4
2018-03-14T03:43:21.195Z,3.4
2018-03-14T03:44:23.626Z,3.4
2018-03-14T03:45:26.050Z,3.4
2018-03-14T03:46:28.474Z,3.4
2018-03-14T03:47:30.897Z,3.4
2018-03-14T03:48:33.317Z,3.5
2018-03-14T03:49:35.755Z,3.5
2018-03-14T03:50:38.183Z,3.4
2018-03-14T03:51:40.609Z,3.4
2018-03-14T03:52:43.040Z,3.4
2018-03-14T03:53:45.764Z,3.4
2018-03-14T03:54:48.171Z,3.4
2018-03-14T03:55:50.603Z,3.5
2018-03-14T03:56:53.028Z,3.4
2018-03-14T03:57:55.452Z,3.4
2018-03-14T03:58:58.172Z,3.4
2018-03-14T04:00:00.884Z,3.4
2018-03-14T04:01:03.597Z,3.4
2018-03-14T04:02:06.034Z,3.5
2018-03-14T04:03:08.462Z,3.5
2018-03-14T04:04:10.888Z,3.5
2018-03-14T04:05:13.314Z,3.5
2018-03-14T04:06:15.745Z,3.5
2018-03-14T04:07:18.192Z,3.5
2018-03-14T04:08:20.886Z,3.5
2018-03-14T04:09:23.318Z,3.5
2018-03-14T04:10:26.058Z,3.5
2018-03-14T04:11:28.783Z,3.5
2018-03-14T04:12:31.206Z,3.5
2018-03-14T04:13:33.627Z,3.5
2018-03-14T04:14:36.072Z,3.5
2018-03-14T04:15:38.483Z,3.5
2018-03-14T04:16:40.912Z,3.5
2018-03-14T04:17:43.318Z,3.5
2018-03-14T04:18:45.748Z,3.5
2018-03-14T04:19:48.175Z,3.5
2018-03-14T04:20:50.616Z,3.5
2018-03-14T04:21:53.036Z,3.4
2018-03-14T04:22:55.464Z,3.4
2018-03-14T04:23:57.887Z,3.4
2018-03-14T04:25:00.309Z,3.4
2018-03-14T04:26:03.027Z,3.5
2018-03-14T04:27:05.743Z,3.4
2018-03-14T04:28:08.175Z,3.5
2018-03-14T04:29:10.884Z,3.5
2018-03-14T04:30:13.318Z,3.4
2018-03-14T04:31:15.769Z,3.4
2018-03-14T04:32:18.480Z,3.5
2018-03-14T04:33:21.204Z,3.5
2018-03-14T04:34:23.631Z,3.5
2018-03-14T04:35:26.061Z,3.5
2018-03-14T04:36:28.783Z,3.5
2018-03-14T04:37:31.199Z,3.5
2018-03-14T04:38:33.624Z,3.5
2018-03-14T04:39:36.063Z,3.5
2018-03-14T04:40:38.486Z,3.5
2018-03-14T04:41:40.906Z,3.5
2018-03-14T04:42:43.334Z,3.4
2018-03-14T04:43:45.757Z,3.4
2018-03-14T04:44:48.500Z,3.4
2018-03-14T04:45:50.928Z,3.5
2018-03-14T04:46:53.337Z,3.5
2018-03-14T04:47:55.773Z,3.5
2018-03-14T04:48:58.204Z,3.5
2018-03-14T04:50:00.640Z,3.5
2018-03-14T04:51:03.353Z,3.5
2018-03-14T04:52:05.792Z,3.5
2018-03-14T04:53:08.218Z,3.4
2018-03-14T04:54:10.635Z,3.4
2018-03-14T04:55:13.065Z,3.4
2018-03-14T04:56:15.487Z,3.4
2018-03-14T04:57:17.923Z,3.4
2018-03-14T04:58:20.349Z,3.4
2018-03-14T04:59:23.062Z,3.4
2018-03-14T05:00:25.495Z,3.4
2018-03-14T05:01:27.934Z,3.4
2018-03-14T05:02:30.646Z,3.5
2018-03-14T05:03:33.358Z,3.5
2018-03-14T05:04:36.069Z,3.5
2018-03-14T05:05:38.503Z,3.4
2018-03-14T05:06:40.933Z,3.4
2018-03-14T05:07:43.363Z,3.4
2018-03-14T05:08:46.075Z,3.4
2018-03-14T05:09:48.504Z,3.4
2018-03-14T05:10:50.931Z,3.4
2018-03-14T05:11:53.365Z,3.4
2018-03-14T05:12:55.942Z,3.4
2018-03-14T05:13:58.684Z,3.3
2018-03-14T05:15:01.116Z,3.3
2018-03-14T05:16:03.536Z,3.3
2018-03-14T05:17:05.971Z,3.3
2018-03-14T05:18:08.393Z,3.3
2018-03-14T05:19:11.101Z,3.2
2018-03-14T05:20:13.532Z,3.1
2018-03-14T05:21:16.237Z,3.2
2018-03-14T05:22:18.661Z,3.3
2018-03-14T05:23:21.085Z,3.2
2018-03-14T05:24:23.518Z,3.3
2018-03-14T05:25:25.956Z,3.3
2018-03-14T05:26:28.392Z,3.2
2018-03-14T05:27:31.115Z,3.2
2018-03-14T05:28:33.833Z,3.1
2018-03-14T05:29:36.275Z,3.2
2018-03-14T05:30:38.992Z,3.2
2018-03-14T05:31:41.414Z,3.2
2018-03-14T05:32:44.129Z,3.1
2018-03-14T05:33:46.840Z,3.2
2018-03-14T05:34:49.565Z,3.2
2018-03-14T05:35:51.991Z,3.1
2018-03-14T05:36:54.418Z,3
2018-03-14T05:37:56.840Z,3
2018-03-14T05:38:59.271Z,3
2018-03-14T05:40:01.694Z,3.1
2018-03-14T05:41:04.126Z,3.1
2018-03-14T05:42:06.554Z,3
2018-03-14T05:43:08.982Z,3
2018-03-14T05:44:11.417Z,3.1
2018-03-14T05:45:13.846Z,3.1
2018-03-14T05:46:16.271Z,3.1
2018-03-14T05:47:18.693Z,3.1
2018-03-14T05:48:21.125Z,3.1
2018-03-14T05:49:23.554Z,3
2018-03-14T05:50:25.980Z,3
2018-03-14T05:51:28.416Z,3
2018-03-14T05:52:30.848Z,3
2018-03-14T05:53:33.260Z,3
2018-03-14T05:54:35.696Z,3.1
2018-03-14T05:55:38.415Z,3
2018-03-14T05:56:40.849Z,3
2018-03-14T05:57:43.272Z,3
2018-03-14T05:58:45.696Z,3
2018-03-14T05:59:48.118Z,3
2018-03-14T06:00:50.556Z,2.9
2018-03-14T06:01:52.986Z,2.9
2018-03-14T06:02:55.402Z,3
2018-03-14T06:03:57.833Z,3
2018-03-14T06:05:00.261Z,3
2018-03-14T06:06:02.696Z,3
2018-03-14T06:07:05.115Z,3
2018-03-14T06:08:07.533Z,3
2018-03-14T06:09:09.966Z,3.1
2018-03-14T06:10:12.974Z,3
2018-03-14T06:11:15.397Z,3
2018-03-14T06:12:17.820Z,3
2018-03-14T06:13:20.245Z,3
2018-03-14T06:14:22.675Z,3.1
2018-03-14T06:15:25.117Z,3.1
2018-03-14T06:16:27.575Z,3
2018-03-14T06:17:29.957Z,3
2018-03-14T06:18:32.389Z,3
2018-03-14T06:19:35.125Z,3
2018-03-14T06:20:37.848Z,3
2018-03-14T06:21:40.284Z,3
2018-03-14T06:22:42.715Z,3
2018-03-14T06:23:45.149Z,3.1
2018-03-14T06:24:47.848Z,3
2018-03-14T06:25:50.277Z,3
2018-03-14T06:26:52.718Z,3.1
2018-03-14T06:27:55.138Z,3
2018-03-14T06:28:57.560Z,3.1
2018-03-14T06:29:59.988Z,3
2018-03-14T06:31:02.410Z,3
2018-03-14T06:32:04.844Z,2.9
2018-03-14T06:33:07.286Z,3
2018-03-14T06:34:09.988Z,3
2018-03-14T06:35:12.420Z,3
2018-03-14T06:36:14.839Z,3
2018-03-14T06:37:17.275Z,3
2018-03-14T06:38:19.703Z,3
2018-03-14T06:39:22.131Z,3
2018-03-14T06:40:24.561Z,3
2018-03-14T06:41:27.280Z,3
2018-03-14T06:42:29.714Z,3
2018-03-14T06:43:32.139Z,3
2018-03-14T06:44:34.563Z,3.1
2018-03-14T06:45:37.270Z,3
2018-03-14T06:46:39.698Z,3
2018-03-14T06:47:42.124Z,3.1
2018-03-14T06:48:44.538Z,3
2018-03-14T06:49:46.979Z,3
2018-03-14T06:50:49.414Z,3
2018-03-14T06:51:51.846Z,3
2018-03-14T06:52:54.268Z,3
2018-03-14T06:53:56.695Z,3.1
2018-03-14T06:54:59.126Z,3.1
2018-03-14T06:56:01.558Z,3.1
2018-03-14T06:57:03.984Z,3.2
2018-03-14T06:58:06.696Z,3.1
2018-03-14T06:59:09.118Z,3.1
2018-03-14T07:00:11.641Z,3.1
2018-03-14T07:01:13.985Z,3.1
2018-03-14T07:02:16.413Z,3.1
2018-03-14T07:03:18.837Z,3.1
2018-03-14T07:04:21.547Z,3.1
2018-03-14T07:05:23.979Z,3.1
2018-03-14T07:06:26.420Z,3.2
2018-03-14T07:07:28.839Z,3.2
2018-03-14T07:08:31.550Z,3.1
2018-03-14T07:09:33.983Z,3.2
2018-03-14T07:10:36.436Z,3.2
2018-03-14T07:11:38.868Z,3.1
2018-03-14T07:12:41.297Z,3.1
2018-03-14T07:13:43.716Z,3
2018-03-14T07:14:46.446Z,3.1
2018-03-14T07:15:48.871Z,3
2018-03-14T07:16:51.299Z,3.1
2018-03-14T07:17:53.728Z,3.1
2018-03-14T07:18:56.157Z,3.1
2018-03-14T07:19:58.895Z,3.1
2018-03-14T07:21:01.301Z,3.1
2018-03-14T07:22:03.728Z,3.2
2018-03-14T07:23:06.159Z,3.2
2018-03-14T07:24:08.881Z,3.1
2018-03-14T07:25:11.316Z,3.1
2018-03-14T07:26:13.729Z,3.1
2018-03-14T07:27:16.164Z,3.1
2018-03-14T07:28:18.597Z,3.2
2018-03-14T07:29:21.013Z,3.2
2018-03-14T07:30:23.450Z,3.2
2018-03-14T07:31:26.160Z,3.3
2018-03-14T07:32:28.578Z,3.3
2018-03-14T07:33:31.025Z,3.3
2018-03-14T07:34:33.453Z,3.3
2018-03-14T07:35:36.194Z,3.3
2018-03-14T07:36:38.620Z,3.2
2018-03-14T07:37:41.054Z,3.2
2018-03-14T07:38:43.480Z,3.2
2018-03-14T07:39:45.909Z,3.2
2018-03-14T07:40:48.612Z,3.2
2018-03-14T07:41:51.043Z,3.3
2018-03-14T07:42:53.464Z,3.3
2018-03-14T07:43:55.896Z,3.2
2018-03-14T07:44:58.325Z,3.3
2018-03-14T07:46:00.759Z,3.3
2018-03-14T07:47:03.208Z,3.3
2018-03-14T07:48:05.649Z,3.2
2018-03-14T07:49:08.363Z,3.3
2018-03-14T07:50:10.779Z,3.3
2018-03-14T07:51:13.506Z,3.3
2018-03-14T07:52:15.930Z,3.3
2018-03-14T07:53:18.359Z,3.3
2018-03-14T07:54:20.787Z,3.2
2018-03-14T07:55:23.217Z,3.3
2018-03-14T07:56:25.646Z,3.3
2018-03-14T07:57:28.095Z,3.3
2018-03-14T07:58:30.522Z,3.3
2018-03-14T07:59:32.950Z,3.3
2018-03-14T08:00:35.384Z,3.3
2018-03-14T08:01:37.813Z,3.3
2018-03-14T08:02:40.244Z,3.3
2018-03-14T08:03:42.681Z,3.3
2018-03-14T08:04:45.377Z,3.3
2018-03-14T08:05:47.842Z,3.3
2018-03-14T08:06:50.241Z,3.3
2018-03-14T08:07:52.669Z,3.3
2018-03-14T08:08:55.385Z,3.2
2018-03-14T08:09:57.809Z,3.2
2018-03-14T08:11:00.233Z,3.3
2018-03-14T08:12:02.724Z,3.3
2018-03-14T08:13:05.152Z,3.3
2018-03-14T08:14:07.577Z,3.4
2018-03-14T08:15:10.294Z,3.4
2018-03-14T08:16:12.724Z,3.5
2018-03-14T08:17:15.146Z,3.5
2018-03-14T08:18:17.576Z,3.4
2018-03-14T08:19:20.006Z,3.5
2018-03-14T08:20:22.433Z,3.6
2018-03-14T08:21:24.872Z,3.4
2018-03-14T08:22:27.286Z,3.5
2018-03-14T08:23:30.040Z,3.5
2018-03-14T08:24:32.471Z,3.6
2018-03-14T08:25:34.900Z,3.7
2018-03-14T08:26:37.336Z,3.7
2018-03-14T08:27:40.050Z,3.7
2018-03-14T08:28:42.786Z,3.7
2018-03-14T08:29:45.213Z,3.7
2018-03-14T08:30:47.625Z,3.7
2018-03-14T08:31:50.063Z,3.8
2018-03-14T08:32:52.787Z,3.7
2018-03-14T08:33:55.212Z,3.8
2018-03-14T08:34:57.648Z,3.8
2018-03-14T08:36:00.353Z,3.8
2018-03-14T08:37:02.788Z,3.8
2018-03-14T08:38:05.229Z,3.8
2018-03-14T08:39:07.654Z,3.8
2018-03-14T08:40:10.118Z,3.8
2018-03-14T08:41:12.804Z,3.9
2018-03-14T08:42:15.230Z,4
2018-03-14T08:43:17.978Z,4.1
2018-03-14T08:44:20.408Z,4.2
2018-03-14T08:45:22.830Z,4.1
2018-03-14T08:46:25.555Z,4.1
2018-03-14T08:47:27.987Z,4.2
2018-03-14T08:48:30.422Z,4.2
2018-03-14T08:49:32.843Z,4.1
2018-03-14T08:50:35.274Z,4.1
2018-03-14T08:51:37.703Z,4
2018-03-14T08:52:40.132Z,4.1
2018-03-14T08:53:42.562Z,4
2018-03-14T08:54:44.996Z,4.1
2018-03-14T08:55:47.473Z,4.3
2018-03-14T08:56:49.852Z,4.3
2018-03-14T08:57:52.270Z,4.3
2018-03-14T08:58:54.696Z,4
2018-03-14T08:59:57.116Z,4.2
2018-03-14T09:00:59.554Z,4.3
2018-03-14T09:02:01.994Z,4.3
2018-03-14T09:03:04.433Z,4.4
2018-03-14T09:04:06.856Z,4.4
2018-03-14T09:05:09.287Z,4.4
2018-03-14T09:06:12.281Z,4.4
2018-03-14T09:07:14.715Z,4.5
2018-03-14T09:08:17.144Z,4.5
2018-03-14T09:09:19.871Z,4.5
2018-03-14T09:10:22.576Z,4.5
2018-03-14T09:11:25.295Z,4.5
2018-03-14T09:12:27.716Z,4.7
2018-03-14T09:13:30.147Z,4.7
2018-03-14T09:14:32.570Z,4.6
2018-03-14T09:15:35.297Z,4.6
2018-03-14T09:16:37.727Z,4.5
2018-03-14T09:17:40.160Z,4.5
2018-03-14T09:18:42.576Z,4.6
2018-03-14T09:19:45.015Z,4.8
2018-03-14T09:20:47.767Z,4.8
2018-03-14T09:21:50.197Z,4.8
2018-03-14T09:22:52.635Z,4.8
2018-03-14T09:23:55.067Z,4.9
2018-03-14T09:24:57.493Z,4.8
2018-03-14T09:25:59.930Z,4.9
2018-03-14T09:27:02.353Z,4.9
2018-03-14T09:28:04.773Z,5
2018-03-14T09:29:07.206Z,4.9
2018-03-14T09:30:09.637Z,4.9
2018-03-14T09:31:12.362Z,4.9
2018-03-14T09:32:14.788Z,4.9
2018-03-14T09:33:17.256Z,4.8
2018-03-14T09:34:19.646Z,4.8
2018-03-14T09:35:22.659Z,4.6
2018-03-14T09:36:25.089Z,4.7
2018-03-14T09:37:27.528Z,4.8
2018-03-14T09:38:29.958Z,5
2018-03-14T09:39:32.706Z,5.1
2018-03-14T09:40:35.133Z,4.8
2018-03-14T09:41:37.566Z,4.9
2018-03-14T09:42:40.004Z,4.9
2018-03-14T09:43:42.429Z,5
2018-03-14T09:44:44.864Z,5.2
2018-03-14T09:45:47.591Z,5.1
2018-03-14T09:46:50.004Z,5.1
2018-03-14T09:47:52.439Z,5.1
2018-03-14T09:48:54.871Z,5.1
2018-03-14T09:49:57.305Z,5.2
2018-03-14T09:50:59.739Z,5.2
2018-03-14T09:52:02.184Z,5.1
2018-03-14T09:53:04.604Z,5.2
2018-03-14T09:54:07.407Z,5.2
2018-03-14T09:55:09.785Z,5.2
2018-03-14T09:56:12.211Z,5.4
2018-03-14T09:57:14.649Z,5.4
2018-03-14T09:58:17.371Z,5.1
2018-03-14T09:59:19.800Z,5.2
2018-03-14T10:00:22.242Z,5.3
2018-03-14T10:01:24.958Z,5.2
2018-03-14T10:02:27.396Z,5.3
2018-03-14T10:03:29.836Z,5.4
2018-03-14T10:04:32.574Z,5.4
2018-03-14T10:05:35.005Z,5.5
2018-03-14T10:06:37.430Z,5.5
2018-03-14T10:07:40.458Z,5.6
2018-03-14T10:08:42.891Z,5.4
2018-03-14T10:09:45.321Z,5.8
2018-03-14T10:10:48.023Z,5.9
2018-03-14T10:11:50.463Z,5.9
2018-03-14T10:12:52.900Z,6.3
2018-03-14T10:13:55.621Z,6.4
2018-03-14T10:14:58.053Z,6.6
2018-03-14T10:16:00.491Z,7
2018-03-14T10:17:02.927Z,7.2
2018-03-14T10:18:05.638Z,7.2
2018-03-14T10:19:08.399Z,6.8
2018-03-14T10:20:10.814Z,6.8
2018-03-14T10:21:13.247Z,6.8
2018-03-14T10:22:15.969Z,7.3
2018-03-14T10:23:18.695Z,7.6
2018-03-14T10:24:21.414Z,7.7
2018-03-14T10:25:23.854Z,8
2018-03-14T10:26:26.301Z,8.4
2018-03-14T10:27:29.031Z,8.3
2018-03-14T10:28:31.465Z,7.8
2018-03-14T10:29:33.903Z,8
2018-03-14T10:30:36.341Z,7.9
2018-03-14T10:31:39.071Z,7.6
2018-03-14T10:32:41.512Z,7.2
2018-03-14T10:33:43.958Z,7.5
2018-03-14T10:34:46.392Z,8
2018-03-14T10:35:48.826Z,8.8
2018-03-14T10:36:51.250Z,9
2018-03-14T10:37:53.686Z,9.4
2018-03-14T10:38:56.421Z,9.2
2018-03-14T10:39:59.146Z,9
2018-03-14T10:41:01.619Z,8.8
2018-03-14T10:42:04.340Z,9.1
2018-03-14T10:43:07.067Z,8.9
2018-03-14T10:44:09.527Z,8.6
2018-03-14T10:45:11.973Z,8.6
2018-03-14T10:46:14.402Z,8
2018-03-14T10:47:16.843Z,7.8
2018-03-14T10:48:19.585Z,7.6
2018-03-14T10:49:22.019Z,7.8
2018-03-14T10:50:24.447Z,7.6
2018-03-14T10:51:26.899Z,7.3
2018-03-14T10:52:29.338Z,7.2
2018-03-14T10:53:32.357Z,7.2
2018-03-14T10:54:34.798Z,7.2
2018-03-14T10:55:37.229Z,6.9
2018-03-14T10:56:39.970Z,6.6
2018-03-14T10:57:42.411Z,6.5
2018-03-14T10:58:44.839Z,6.2
2018-03-14T10:59:47.278Z,5.9
2018-03-14T11:00:50.013Z,5.9
2018-03-14T11:01:52.738Z,6.3
2018-03-14T11:02:55.492Z,6.3
2018-03-14T11:03:58.204Z,6.6
2018-03-14T11:05:00.645Z,6.4
2018-03-14T11:06:03.081Z,6.6
2018-03-14T11:07:05.798Z,6.7
2018-03-14T11:08:08.227Z,6.3
2018-03-14T11:09:10.681Z,6.2
2018-03-14T11:10:13.108Z,6.2
2018-03-14T11:11:15.846Z,6.3
2018-03-14T11:12:18.283Z,5.9
2018-03-14T11:13:20.727Z,6.1
2018-03-14T11:14:23.159Z,6.4
2018-03-14T11:15:25.596Z,6.4
2018-03-14T11:16:28.025Z,6.5
2018-03-14T11:17:30.473Z,6.3
2018-03-14T11:18:32.907Z,6.4
2018-03-14T11:19:35.337Z,6.2
2018-03-14T11:20:37.771Z,6.1
2018-03-14T11:21:40.257Z,6.1
2018-03-14T11:22:42.927Z,6.5
2018-03-14T11:23:45.377Z,6.9
2018-03-14T11:24:48.083Z,7
2018-03-14T11:25:50.518Z,6.8
2018-03-14T11:26:53.244Z,6.7
2018-03-14T11:27:55.980Z,7
2018-03-14T11:28:58.420Z,6.8
2018-03-14T11:30:00.849Z,6.7
2018-03-14T11:31:03.294Z,6.4
2018-03-14T11:32:05.784Z,6.3
2018-03-14T11:33:08.510Z,6.5
2018-03-14T11:34:11.496Z,6.4
2018-03-14T11:35:13.935Z,6.5
2018-03-14T11:36:16.379Z,6.4
2018-03-14T11:37:18.817Z,6.2
2018-03-14T11:38:21.255Z,6.4
2018-03-14T11:39:23.696Z,5.9
2018-03-14T11:40:26.122Z,5.8
2018-03-14T11:41:28.559Z,6
2018-03-14T11:42:30.989Z,5.9
2018-03-14T11:43:33.419Z,6
2018-03-14T11:44:35.896Z,6
2018-03-14T11:45:38.654Z,5.9
2018-03-14T11:46:41.087Z,5.9
2018-03-14T11:47:43.520Z,5.7
2018-03-14T11:48:45.962Z,5.6
2018-03-14T11:49:48.389Z,5.5
2018-03-14T11:50:50.829Z,5.5
2018-03-14T11:51:53.261Z,5.4
2018-03-14T11:52:55.703Z,5.4
2018-03-14T11:53:58.427Z,5.5
2018-03-14T11:55:00.866Z,5.4
2018-03-14T11:56:03.288Z,5.5
2018-03-14T11:57:05.730Z,5.4
2018-03-14T11:58:08.169Z,5.4
2018-03-14T11:59:10.608Z,5.3
2018-03-14T12:00:13.039Z,5.2
2018-03-14T12:01:15.474Z,5.5
2018-03-14T12:02:17.901Z,5.3
2018-03-14T12:03:20.616Z,5.3
2018-03-14T12:04:23.623Z,5.2
2018-03-14T12:05:26.056Z,5.2
2018-03-14T12:06:28.488Z,5.2
2018-03-14T12:07:30.939Z,5.2
2018-03-14T12:08:33.370Z,5.3
2018-03-14T12:09:35.809Z,5.2
2018-03-14T12:10:38.235Z,5.2
2018-03-14T12:11:40.665Z,5.1
2018-03-14T12:12:43.389Z,5.3
2018-03-14T12:13:45.816Z,5.1
2018-03-14T12:14:48.242Z,5.1
2018-03-14T12:15:50.669Z,4.9
2018-03-14T12:16:53.101Z,4.8
2018-03-14T12:17:55.545Z,4.8
2018-03-14T12:18:57.980Z,4.8
2018-03-14T12:20:00.705Z,4.8
2018-03-14T12:21:03.141Z,4.8
2018-03-14T12:22:05.560Z,4.8
2018-03-14T12:23:08.004Z,4.7
2018-03-14T12:24:10.435Z,4.9
2018-03-14T12:25:12.869Z,4.9
2018-03-14T12:26:15.343Z,4.9
2018-03-14T12:27:17.735Z,5
2018-03-14T12:28:20.155Z,4.8
2018-03-14T12:29:22.599Z,4.8
2018-03-14T12:30:25.019Z,4.8
2018-03-14T12:31:27.463Z,4.9
2018-03-14T12:32:29.892Z,4.8
2018-03-14T12:33:32.328Z,4.8
2018-03-14T12:34:35.054Z,4.6
2018-03-14T12:35:37.492Z,4.7
2018-03-14T12:36:39.936Z,4.8
2018-03-14T12:37:42.366Z,4.9
2018-03-14T12:38:45.367Z,4.9
2018-03-14T12:39:47.797Z,4.9
2018-03-14T12:40:50.226Z,4.8
2018-03-14T12:41:52.656Z,4.9
2018-03-14T12:42:55.078Z,4.9
2018-03-14T12:43:57.513Z,5.1
2018-03-14T12:44:59.951Z,5
2018-03-14T12:46:02.670Z,5
2018-03-14T12:47:05.101Z,4.9
2018-03-14T12:48:07.545Z,4.8
2018-03-14T12:49:09.975Z,4.9
2018-03-14T12:50:12.405Z,5
2018-03-14T12:51:14.832Z,5
2018-03-14T12:52:17.861Z,4.9
2018-03-14T12:53:20.295Z,5.1
2018-03-14T12:54:23.022Z,5.1
2018-03-14T12:55:25.722Z,5
2018-03-14T12:56:28.161Z,5
2018-03-14T12:57:30.600Z,5
2018-03-14T12:58:33.313Z,4.9
2018-03-14T12:59:35.744Z,4.9
2018-03-14T13:00:38.176Z,4.9
2018-03-14T13:01:40.608Z,5
2018-03-14T13:02:43.046Z,5
2018-03-14T13:03:45.483Z,5.1
2018-03-14T13:04:47.906Z,5.2
2018-03-14T13:05:50.340Z,5.1
2018-03-14T13:06:52.789Z,5
2018-03-14T13:07:55.211Z,4.9
2018-03-14T13:08:57.926Z,5
2018-03-14T13:10:00.348Z,5.1
2018-03-14T13:11:03.083Z,5.1
2018-03-14T13:12:05.517Z,5.1
2018-03-14T13:13:07.954Z,4.9
2018-03-14T13:14:10.668Z,4.9
2018-03-14T13:15:13.101Z,4.8
2018-03-14T13:16:15.542Z,4.9
2018-03-14T13:17:18.262Z,4.9
2018-03-14T13:18:20.692Z,4.9
2018-03-14T13:19:23.127Z,4.9
2018-03-14T13:20:25.557Z,4.9
2018-03-14T13:21:27.986Z,4.9
2018-03-14T13:22:30.431Z,5.1
2018-03-14T13:23:33.160Z,5.2
2018-03-14T13:24:35.600Z,5.2
2018-03-14T13:25:38.058Z,5.1
2018-03-14T13:26:40.468Z,5.1
2018-03-14T13:27:42.893Z,5.1
2018-03-14T13:28:45.327Z,5.2
2018-03-14T13:29:47.744Z,5.2
2018-03-14T13:30:50.194Z,5.2
2018-03-14T13:31:52.910Z,5.3
2018-03-14T13:32:55.390Z,5
2018-03-14T13:33:57.773Z,4.9
2018-03-14T13:35:00.502Z,4.8
2018-03-14T13:36:03.209Z,4.9
2018-03-14T13:37:05.935Z,5.1
2018-03-14T13:38:08.655Z,5.1
2018-03-14T13:39:11.089Z,5.1
2018-03-14T13:40:13.519Z,5.2
2018-03-14T13:41:15.952Z,5.3
2018-03-14T13:42:18.377Z,5.2
2018-03-14T13:43:20.809Z,5.3
2018-03-14T13:44:23.553Z,5.1
2018-03-14T13:45:25.985Z,5.1
2018-03-14T13:46:28.406Z,5.1
2018-03-14T13:47:31.145Z,5.2
2018-03-14T13:48:33.858Z,5.2
2018-03-14T13:49:36.281Z,5.2
2018-03-14T13:50:39.008Z,5.3
2018-03-14T13:51:41.446Z,5.3
2018-03-14T13:52:43.882Z,5.3
2018-03-14T13:53:46.316Z,5.3
2018-03-14T13:54:48.738Z,5.2
2018-03-14T13:55:51.170Z,5.2
2018-03-14T13:56:53.621Z,5.2
2018-03-14T13:57:56.048Z,5.2
2018-03-14T13:58:58.486Z,5.2
2018-03-14T14:00:00.915Z,5.4
2018-03-14T14:01:03.345Z,5.3
2018-03-14T14:02:05.787Z,5.3
2018-03-14T14:03:08.215Z,5.3
2018-03-14T14:04:10.924Z,5.3
2018-03-14T14:05:13.927Z,5.2
2018-03-14T14:06:16.361Z,5.3
2018-03-14T14:07:18.796Z,5.1
2018-03-14T14:08:21.232Z,4.9
2018-03-14T14:09:23.957Z,5
2018-03-14T14:10:26.398Z,4.9
2018-03-14T14:11:28.847Z,5
2018-03-14T14:12:31.272Z,5.2
2018-03-14T14:13:33.699Z,5.2
2018-03-14T14:14:36.123Z,5.4
2018-03-14T14:15:38.556Z,5.4
2018-03-14T14:16:40.989Z,5.3
2018-03-14T14:17:43.423Z,5.1
2018-03-14T14:18:45.855Z,5.2
2018-03-14T14:19:48.293Z,5.4
2018-03-14T14:20:50.731Z,5.4
2018-03-14T14:21:53.171Z,5.4
2018-03-14T14:22:55.596Z,5.3
2018-03-14T14:23:58.032Z,5.2
2018-03-14T14:25:00.525Z,5.2
2018-03-14T14:26:02.903Z,5.3
2018-03-14T14:27:05.326Z,5.3